Time;durP1;ratioP1;P1;durP2;ratioP2;P2;SDS_P1;SDS_P2;PMS_P1;PMS_P2;Temp;Humidity;BMP_temperature;BMP_pressure;BME280_temperature;BME280_humidity;BME280_pressure;Samples;Min_cycle;Max_cycle;Signal;HPM_P1;HPM_P2
2022/06/17 00:00:51;;;;;;;15.63;6.10;;;;;;;15.87;100.00;102335.09;5214353;28;20037;-71
2022/06/17 00:03:25;;;;;;;10.63;6.47;;;;;;;15.90;100.00;102344.72;5218791;28;20437;-71
2022/06/17 00:05:57;;;;;;;10.13;5.93;;;;;;;15.92;100.00;102338.16;5223236;28;20382;-72
2022/06/17 00:08:30;;;;;;;9.68;5.95;;;;;;;15.93;100.00;102339.00;5209254;28;20048;-71
2022/06/17 00:11:01;;;;;;;11.00;6.05;;;;;;;15.91;100.00;102335.59;5222728;28;20032;-70
2022/06/17 00:13:32;;;;;;;11.65;5.80;;;;;;;15.91;100.00;102330.16;5222756;28;20023;-71
2022/06/17 00:16:02;;;;;;;12.70;6.60;;;;;;;15.89;100.00;102333.06;5209472;28;20029;-70
2022/06/17 00:18:33;;;;;;;10.23;5.90;;;;;;;15.83;100.00;102328.31;5210524;28;20032;-70
2022/06/17 00:21:03;;;;;;;8.80;5.85;;;;;;;15.76;100.00;102330.84;5222504;28;20032;-70
2022/06/17 00:23:34;;;;;;;13.73;6.68;;;;;;;15.73;100.00;102327.59;5222288;28;20032;-70
2022/06/17 00:26:04;;;;;;;10.48;5.70;;;;;;;15.62;100.00;102323.31;5205865;28;20081;-70
2022/06/17 00:28:35;;;;;;;11.57;6.20;;;;;;;15.51;100.00;102321.75;5203965;28;20483;-69
2022/06/17 00:31:05;;;;;;;12.00;5.47;;;;;;;15.40;100.00;102326.56;5219088;28;20307;-70
2022/06/17 00:33:36;;;;;;;6.75;5.10;;;;;;;15.33;100.00;102329.09;5217212;28;20088;-71
2022/06/17 00:36:11;;;;;;;8.32;5.55;;;;;;;15.28;100.00;102334.97;5212377;28;20106;-70
2022/06/17 00:38:43;;;;;;;14.73;6.38;;;;;;;15.23;100.00;102331.91;5226630;28;20025;-71
2022/06/17 00:41:35;;;;;;;10.77;5.93;;;;;;;15.20;100.00;102334.94;5225645;28;20033;-71
2022/06/17 00:44:19;;;;;;;10.98;5.82;;;;;;;15.18;100.00;102331.56;5225731;28;20051;-70
2022/06/17 00:46:58;;;;;;;9.02;5.22;;;;;;;15.15;100.00;102329.16;5226291;28;20035;-71
2022/06/17 00:49:49;;;;;;;13.10;5.75;;;;;;;15.08;100.00;102332.69;5217221;28;20022;-70
2022/06/17 00:52:25;;;;;;;14.90;6.28;;;;;;;15.02;100.00;102329.59;5224213;28;20074;-70
2022/06/17 00:55:07;;;;;;;16.33;6.05;;;;;;;14.95;100.00;102339.34;5225679;28;20024;-70
2022/06/17 00:57:40;;;;;;;9.48;6.10;;;;;;;14.88;100.00;102337.44;5217021;28;20030;-70
2022/06/17 01:00:16;;;;;;;13.07;6.25;;;;;;;14.82;100.00;102341.63;5221877;28;20194;-70
2022/06/17 01:02:53;;;;;;;11.20;6.43;;;;;;;14.75;100.00;102340.53;5215220;28;20097;-71
2022/06/17 01:05:30;;;;;;;11.48;7.15;;;;;;;14.65;100.00;102335.22;5224665;28;20394;-70
2022/06/17 01:08:12;;;;;;;11.20;6.82;;;;;;;14.52;100.00;102317.75;5226379;28;20021;-71
2022/06/17 01:10:46;;;;;;;11.02;5.97;;;;;;;14.39;100.00;102332.47;5226329;28;20029;-70
2022/06/17 01:13:16;;;;;;;12.85;6.28;;;;;;;14.32;100.00;102326.00;5208380;28;20440;-70
2022/06/17 01:15:47;;;;;;;14.75;6.53;;;;;;;14.24;100.00;102326.75;5216580;28;20045;-69
2022/06/17 01:18:18;;;;;;;10.60;6.32;;;;;;;14.18;100.00;102338.16;5224830;28;20035;-70
2022/06/17 01:20:55;;;;;;;13.18;6.90;;;;;;;14.12;100.00;102325.31;5225875;28;20025;-69
2022/06/17 01:23:26;;;;;;;10.70;5.97;;;;;;;14.08;100.00;102329.31;5218432;28;20498;-70
2022/06/17 01:25:57;;;;;;;11.13;6.57;;;;;;;14.06;100.00;102331.31;5219307;28;20070;-70
2022/06/17 01:28:27;;;;;;;12.57;7.80;;;;;;;14.08;100.00;102328.44;5226236;28;20033;-70
2022/06/17 01:31:00;;;;;;;10.73;6.50;;;;;;;14.05;100.00;102328.75;5225872;28;20029;-71
2022/06/17 01:33:33;;;;;;;13.90;7.22;;;;;;;14.00;100.00;102321.09;5215632;28;20026;-72
2022/06/17 01:36:12;;;;;;;14.65;7.43;;;;;;;13.96;100.00;102320.59;5218095;28;20033;-70
2022/06/17 01:38:47;;;;;;;13.95;7.13;;;;;;;13.93;100.00;102328.13;5217729;28;20043;-70
2022/06/17 01:41:25;;;;;;;14.32;7.47;;;;;;;13.90;100.00;102323.03;5216144;28;20026;-70
2022/06/17 01:44:16;;;;;;;14.18;7.55;;;;;;;13.90;100.00;102325.72;5204850;28;20125;-71
2022/06/17 01:46:52;;;;;;;11.48;6.80;;;;;;;13.88;100.00;102325.88;5218080;28;20036;-72
2022/06/17 01:49:24;;;;;;;;;;;;;;;13.87;100.00;102324.19;5213749;28;20060;-71
2022/06/17 01:52:28;;;;;;;17.50;7.35;;;;;;;13.88;100.00;102316.94;5207381;28;19909;-70
2022/06/17 01:55:12;;;;;;;10.43;6.35;;;;;;;13.89;100.00;102315.94;5206530;28;20037;-71
2022/06/17 01:58:03;;;;;;;11.55;6.07;;;;;;;13.92;100.00;102319.19;5225257;28;20025;-70
2022/06/17 02:00:34;;;;;;;13.70;6.32;;;;;;;13.95;100.00;102326.13;5224804;28;20101;-70
2022/06/17 02:03:10;;;;;;;9.82;6.57;;;;;;;13.98;100.00;102317.72;5211203;28;20022;-72
2022/06/17 02:05:47;;;;;;;11.20;6.30;;;;;;;14.02;100.00;102323.69;5224370;28;20086;-70
2022/06/17 02:08:18;;;;;;;11.52;7.30;;;;;;;14.01;100.00;102322.84;5221670;28;20044;-70
2022/06/17 02:10:49;;;;;;;10.93;6.63;;;;;;;14.00;100.00;102318.41;5215040;28;20029;-71
2022/06/17 02:13:20;;;;;;;14.65;7.38;;;;;;;13.97;100.00;102324.13;5211369;28;20021;-71
2022/06/17 02:15:52;;;;;;;14.60;7.75;;;;;;;13.93;100.00;102326.28;5212075;28;20029;-70
2022/06/17 02:18:23;;;;;;;11.55;7.57;;;;;;;13.91;100.00;102327.44;5210553;28;20033;-70
2022/06/17 02:20:55;;;;;;;12.20;7.15;;;;;;;13.89;100.00;102324.88;5224586;28;20048;-70
2022/06/17 02:23:27;;;;;;;12.75;7.53;;;;;;;13.88;100.00;102341.22;5216733;28;20025;-70
2022/06/17 02:26:00;;;;;;;10.93;7.88;;;;;;;13.86;100.00;102335.16;5217233;28;20031;-70
2022/06/17 02:28:32;;;;;;;15.38;8.20;;;;;;;13.81;100.00;102332.91;5213053;28;20047;-70
2022/06/17 02:31:08;;;;;;;16.17;7.47;;;;;;;13.76;100.00;102324.41;5224353;28;20371;-71
2022/06/17 02:33:40;;;;;;;11.07;8.00;;;;;;;13.73;100.00;102324.69;5224899;28;20482;-69
2022/06/17 02:36:31;;;;;;;13.50;8.30;;;;;;;13.68;100.00;102335.94;5223844;28;20033;-69
2022/06/17 02:39:04;;;;;;;19.83;8.27;;;;;;;13.65;100.00;102340.78;5223747;28;20086;-69
2022/06/17 02:41:34;;;;;;;11.80;8.15;;;;;;;13.64;100.00;102339.09;5223439;28;20035;-70
2022/06/17 02:44:12;;;;;;;17.00;9.48;;;;;;;13.64;100.00;102336.38;5204524;28;20471;-70
2022/06/17 02:46:44;;;;;;;16.48;9.27;;;;;;;13.67;100.00;102336.94;5214672;28;20119;-71
2022/06/17 02:49:24;;;;;;;12.75;8.43;;;;;;;13.69;100.00;102329.53;5210548;28;20021;-70
2022/06/17 02:51:55;;;;;;;12.23;8.07;;;;;;;13.75;100.00;102325.38;5222976;28;20025;-71
2022/06/17 02:54:32;;;;;;;12.73;8.07;;;;;;;13.80;100.00;102319.53;5224141;28;20417;-70
2022/06/17 02:57:05;;;;;;;12.77;8.85;;;;;;;13.81;100.00;102327.50;5224088;28;20021;-70
2022/06/17 02:59:41;;;;;;;13.98;8.50;;;;;;;13.83;100.00;102325.50;5224462;28;20359;-69
2022/06/17 03:02:31;;;;;;;14.10;8.05;;;;;;;13.84;100.00;102315.56;5210813;28;20200;-70
2022/06/17 03:05:05;;;;;;;18.05;9.18;;;;;;;13.83;100.00;102320.09;5219952;28;20033;-70
2022/06/17 03:07:36;;;;;;;18.50;8.93;;;;;;;13.83;100.00;102325.50;5203535;28;20060;-70
2022/06/17 03:10:21;;;;;;;15.90;10.10;;;;;;;13.81;100.00;102327.50;5221359;28;20383;-70
2022/06/17 03:12:58;;;;;;;17.70;8.70;;;;;;;13.79;100.00;102334.03;5222448;28;20025;-70
2022/06/17 03:15:29;;;;;;;22.08;9.07;;;;;;;13.77;100.00;102327.97;5212597;28;20332;-70
2022/06/17 03:17:59;;;;;;;17.92;9.82;;;;;;;13.75;100.00;102328.09;5223697;28;20498;-70
2022/06/17 03:20:34;;;;;;;15.82;9.52;;;;;;;13.76;100.00;102337.06;5212388;28;20032;-70
2022/06/17 03:23:26;;;;;;;12.82;7.82;;;;;;;13.77;100.00;102339.59;5202667;28;20025;-70
2022/06/17 03:26:15;;;;;;;12.88;7.80;;;;;;;13.85;100.00;102338.81;5204384;28;20030;-71
2022/06/17 03:28:49;;;;;;;18.55;8.80;;;;;;;13.90;100.00;102333.81;5222998;28;20013;-71
2022/06/17 03:31:36;;;;;;;15.05;8.52;;;;;;;13.93;100.00;102330.81;5209564;28;20025;-73
2022/06/17 03:34:15;;;;;;;12.80;8.60;;;;;;;13.91;100.00;102322.91;5223181;28;20423;-71
2022/06/17 03:37:06;;;;;;;18.45;8.75;;;;;;;13.91;100.00;102327.44;5223292;28;20554;-70
2022/06/17 03:40:07;;;;;;;15.90;9.13;;;;;;;13.93;100.00;102334.38;5210543;28;20107;-70
2022/06/17 03:42:51;;;;;;;16.85;8.80;;;;;;;13.94;100.00;102327.97;5216267;28;20029;-69
2022/06/17 03:45:27;;;;;;;15.93;8.60;;;;;;;13.97;100.00;102332.22;5215432;28;20032;-69
2022/06/17 03:48:04;;;;;;;14.60;7.70;;;;;;;14.02;100.00;102339.88;5214874;28;20505;-70
2022/06/17 03:50:37;;;;;;;12.30;7.75;;;;;;;14.08;100.00;102347.34;5220534;28;20063;-70
2022/06/17 03:53:24;;;;;;;18.77;8.25;;;;;;;14.15;100.00;102349.25;5210923;28;20475;-69
2022/06/17 03:55:59;;;;;;;16.30;8.38;;;;;;;14.22;100.00;102342.25;5211028;28;20360;-70
2022/06/17 03:58:31;;;;;;;14.25;7.78;;;;;;;14.32;100.00;102342.19;5223168;28;20056;-70
2022/06/17 04:01:12;;;;;;;12.48;7.50;;;;;;;14.41;100.00;102343.13;5212771;28;20079;-70
2022/06/17 04:03:50;;;;;;;10.48;7.30;;;;;;;14.48;100.00;102339.66;5224001;28;20025;-71
2022/06/17 04:06:25;;;;;;;14.07;7.63;;;;;;;14.52;100.00;102337.50;5225651;28;20056;-72
2022/06/17 04:09:14;;;;;;;10.00;6.97;;;;;;;14.55;100.00;102326.38;5207522;28;20132;-71
2022/06/17 04:11:49;;;;;;;14.10;7.05;;;;;;;14.59;100.00;102325.06;5219950;28;20065;-71
2022/06/17 04:14:24;;;;;;;12.47;6.83;;;;;;;14.64;100.00;102324.59;5206325;28;20021;-71
2022/06/17 04:17:14;;;;;;;14.00;7.10;;;;;;;14.70;100.00;102323.97;5214892;28;20032;-71
2022/06/17 04:19:50;;;;;;;15.93;6.78;;;;;;;14.73;100.00;102310.16;5227150;28;20053;-70
2022/06/17 04:22:52;;;;;;;15.90;6.70;;;;;;;14.71;100.00;102307.63;5226997;28;20035;-70
2022/06/17 04:25:45;;;;;;;10.82;6.47;;;;;;;14.72;100.00;102306.59;5226166;28;20506;-70
2022/06/17 04:28:21;;;;;;;11.45;6.72;;;;;;;14.79;100.00;102295.16;5206429;28;20025;-70
2022/06/17 04:30:58;;;;;;;10.75;6.78;;;;;;;14.88;100.00;102305.03;5208015;28;20513;-71
2022/06/17 04:33:38;;;;;;;12.40;7.38;;;;;;;14.94;100.00;102305.22;5225291;28;20060;-71
2022/06/17 04:36:14;;;;;;;16.58;7.30;;;;;;;14.97;100.00;102304.91;5226407;28;20027;-70
2022/06/17 04:39:06;;;;;;;14.98;7.70;;;;;;;15.03;100.00;102303.41;5226937;28;20360;-70
2022/06/17 04:41:39;;;;;;;10.95;6.80;;;;;;;15.09;100.00;102304.63;5206155;28;20510;-71
2022/06/17 04:44:13;;;;;;;17.80;7.45;;;;;;;15.17;100.00;102310.94;5211002;28;20033;-71
2022/06/17 04:46:49;;;;;;;13.87;7.30;;;;;;;15.28;100.00;102313.34;5232454;28;20024;-70
2022/06/17 04:49:24;;;;;;;16.38;7.57;;;;;;;15.40;100.00;102307.66;5213936;28;20271;-70
2022/06/17 04:52:00;;;;;;;18.25;7.28;;;;;;;15.49;100.00;102315.63;5226232;28;20043;-70
2022/06/17 04:54:32;;;;;;;14.13;7.72;;;;;;;15.59;100.00;102315.50;5226336;28;20025;-70
2022/06/17 04:57:04;;;;;;;11.38;6.18;;;;;;;15.67;100.00;102315.56;5226232;28;20021;-70
2022/06/17 04:59:40;;;;;;;17.33;7.03;;;;;;;15.74;100.00;102322.00;5226393;28;20112;-69
2022/06/17 05:02:16;;;;;;;12.38;6.93;;;;;;;15.84;100.00;102326.44;5225978;28;20025;-70
2022/06/17 05:04:49;;;;;;;12.93;6.95;;;;;;;15.97;100.00;102324.13;5225166;28;20057;-70
2022/06/17 05:07:20;;;;;;;12.77;7.22;;;;;;;16.08;100.00;102323.78;5226138;28;20383;-71
2022/06/17 05:09:57;;;;;;;11.13;6.97;;;;;;;16.20;100.00;102318.91;5226053;28;20078;-71
2022/06/17 05:12:47;;;;;;;11.05;6.47;;;;;;;16.34;100.00;102320.09;5225850;28;20068;-71
2022/06/17 05:15:21;;;;;;;13.85;6.65;;;;;;;16.52;100.00;102315.38;5217494;28;20033;-70
2022/06/17 05:17:52;;;;;;;15.73;7.38;;;;;;;16.72;100.00;102311.31;5207983;28;20032;-70
2022/06/17 05:20:24;;;;;;;11.38;7.30;;;;;;;16.93;100.00;102315.34;5225865;28;20025;-70
2022/06/17 05:23:00;;;;;;;13.40;6.57;;;;;;;17.11;100.00;102301.56;5225619;28;20024;-70
2022/06/17 05:25:35;;;;;;;16.58;7.05;;;;;;;17.24;100.00;102291.03;5225170;28;20025;-70
2022/06/17 05:28:07;;;;;;;18.52;6.75;;;;;;;17.34;100.00;102297.94;5225716;28;20024;-70
2022/06/17 05:30:41;;;;;;;18.38;6.72;;;;;;;17.42;100.00;102288.06;5212093;28;20037;-69
2022/06/17 05:33:14;;;;;;;17.23;6.82;;;;;;;17.53;100.00;102290.41;5212690;28;20071;-69
2022/06/17 05:35:44;;;;;;;17.05;6.68;;;;;;;17.55;100.00;102280.19;5224937;28;20443;-69
2022/06/17 05:38:15;;;;;;;24.60;7.18;;;;;;;17.65;100.00;102283.53;5215780;28;20324;-69
2022/06/17 05:40:45;;;;;;;16.23;6.63;;;;;;;17.80;100.00;102283.66;5220092;28;20025;-69
2022/06/17 05:43:16;;;;;;;17.38;6.78;;;;;;;17.91;100.00;102282.41;5225158;28;20029;-69
2022/06/17 05:45:46;;;;;;;17.70;6.68;;;;;;;18.04;100.00;102279.94;5225184;28;20063;-69
2022/06/17 05:48:17;;;;;;;15.23;6.55;;;;;;;18.19;100.00;102275.41;5217756;28;20025;-69
2022/06/17 05:50:47;;;;;;;20.17;6.25;;;;;;;18.32;100.00;102272.94;5224482;28;20524;-69
2022/06/17 05:53:18;;;;;;;11.82;5.82;;;;;;;18.47;100.00;102275.66;5225020;28;20490;-69
2022/06/17 05:55:50;;;;;;;18.02;5.60;;;;;;;18.61;100.00;102279.44;5217258;28;20036;-69
2022/06/17 05:58:21;;;;;;;11.23;5.63;;;;;;;18.77;100.00;102267.59;5206626;28;20060;-70
2022/06/17 06:00:52;;;;;;;9.30;6.22;;;;;;;18.86;100.00;102267.31;5224774;28;20037;-69
2022/06/17 06:03:25;;;;;;;15.25;5.45;;;;;;;18.99;100.00;102268.56;5224771;28;20017;-69
2022/06/17 06:05:55;;;;;;;16.15;6.28;;;;;;;19.06;100.00;102266.78;5224984;28;20485;-69
2022/06/17 06:08:26;;;;;;;8.48;5.22;;;;;;;19.04;100.00;102263.41;5219529;28;20025;-69
2022/06/17 06:10:57;;;;;;;11.65;4.97;;;;;;;19.14;100.00;102266.69;5216907;28;20058;-69
2022/06/17 06:13:28;;;;;;;10.57;5.18;;;;;;;19.46;100.00;102270.00;5211320;28;20494;-69
2022/06/17 06:16:01;;;;;;;10.05;4.55;;;;;;;19.77;100.00;102278.78;5224919;28;20017;-69
2022/06/17 06:18:35;;;;;;;12.82;5.07;;;;;;;19.94;100.00;102276.69;5224740;28;20028;-70
2022/06/17 06:21:06;;;;;;;8.38;4.55;;;;;;;20.05;100.00;102278.03;5211157;28;20025;-70
2022/06/17 06:23:39;;;;;;;8.40;4.50;;;;;;;20.20;100.00;102286.16;5225061;28;20029;-70
2022/06/17 06:26:15;;;;;;;12.30;4.50;;;;;;;20.30;100.00;102286.66;5223747;28;20025;-69
2022/06/17 06:28:46;;;;;;;10.50;4.68;;;;;;;20.73;100.00;102282.00;5224798;28;20068;-70
2022/06/17 06:31:36;;;;;;;12.82;4.25;;;;;;;21.49;100.00;102281.19;5220418;28;20461;-70
2022/06/17 06:34:08;;;;;;;7.50;3.65;;;;;;;21.66;100.00;102272.44;5214008;28;20025;-70
2022/06/17 06:36:39;;;;;;;7.75;4.10;;;;;;;21.54;100.00;102287.75;5223928;28;20021;-70
2022/06/17 06:39:10;;;;;;;10.52;3.85;;;;;;;21.50;100.00;102285.63;5220438;28;20497;-69
2022/06/17 06:41:41;;;;;;;7.88;3.15;;;;;;;21.63;100.00;102285.66;5211716;28;20021;-70
2022/06/17 06:44:11;;;;;;;6.13;3.22;;;;;;;22.28;100.00;102275.09;5221419;28;20017;-70
2022/06/17 06:46:42;;;;;;;10.32;3.58;;;;;;;22.93;100.00;102289.81;5214906;28;20029;-70
2022/06/17 06:49:12;;;;;;;5.57;3.08;;;;;;;23.25;100.00;102297.13;5208193;28;20123;-70
2022/06/17 06:51:43;;;;;;;7.13;3.08;;;;;;;23.85;100.00;102296.06;5222767;28;20466;-70
2022/06/17 06:54:14;;;;;;;11.60;3.58;;;;;;;23.83;100.00;102290.78;5222685;28;20021;-70
2022/06/17 06:56:44;;;;;;;9.75;3.20;;;;;;;24.02;100.00;102283.50;5222649;28;20025;-70
2022/06/17 06:59:15;;;;;;;10.35;3.17;;;;;;;24.12;100.00;102277.53;5222209;28;20303;-70
2022/06/17 07:01:45;;;;;;;6.00;2.75;;;;;;;24.36;100.00;102270.41;5221953;28;20021;-71
2022/06/17 07:04:16;;;;;;;5.85;2.95;;;;;;;24.62;100.00;102272.09;5222564;28;20070;-71
2022/06/17 07:06:47;;;;;;;8.32;3.05;;;;;;;24.75;100.00;102274.69;5209247;28;20029;-71
2022/06/17 07:09:17;;;;;;;5.28;2.70;;;;;;;25.14;100.00;102280.84;5223036;28;20551;-71
2022/06/17 07:11:48;;;;;;;9.35;3.20;;;;;;;25.56;98.64;102281.81;5221768;28;20028;-71
2022/06/17 07:14:18;;;;;;;6.45;2.95;;;;;;;25.69;97.51;102289.88;5221945;28;20029;-71
2022/06/17 07:16:49;;;;;;;4.45;2.20;;;;;;;26.07;91.63;102288.75;5215541;28;20061;-71
2022/06/17 07:19:19;;;;;;;9.98;2.70;;;;;;;26.08;89.42;102288.50;5216769;28;20047;-71
2022/06/17 07:21:51;;;;;;;8.35;2.90;;;;;;;26.19;91.54;102286.00;5222362;28;20025;-71
2022/06/17 07:24:21;;;;;;;4.03;2.45;;;;;;;26.39;89.59;102283.75;5205077;28;20029;-71
2022/06/17 07:26:52;;;;;;;6.68;2.20;;;;;;;26.77;90.72;102294.38;5212482;28;20013;-71
2022/06/17 07:29:22;;;;;;;3.83;2.22;;;;;;;27.05;82.14;102295.53;5209196;28;20021;-71
2022/06/17 07:31:53;;;;;;;4.95;2.08;;;;;;;26.36;82.79;102289.75;5210496;28;20044;-71
2022/06/17 07:34:23;;;;;;;5.70;2.80;;;;;;;26.90;83.42;102284.16;5220031;28;20227;-71
2022/06/17 07:39:53;;;;;;;3.58;2.33;;;;;;;27.35;79.33;102281.59;5213358;28;20061;-71
2022/06/17 07:42:27;;;;;;;8.05;2.20;;;;;;;27.73;75.12;102286.53;5218398;28;20029;-71
2022/06/17 07:44:57;;;;;;;9.27;2.70;;;;;;;27.55;76.57;102292.19;5220328;28;20029;-71
2022/06/17 07:47:28;;;;;;;5.72;2.22;;;;;;;27.66;75.44;102293.22;5215284;28;20328;-71
2022/06/17 07:49:58;;;;;;;7.15;2.65;;;;;;;27.24;74.86;102279.72;5222586;28;20071;-71
2022/06/17 07:52:29;;;;;;;5.72;2.30;;;;;;;26.89;76.61;102283.34;5214725;28;20028;-71
2022/06/17 07:54:59;;;;;;;5.40;2.08;;;;;;;26.84;78.04;102261.19;5216071;28;20031;-71
2022/06/17 07:57:30;;;;;;;9.05;2.63;;;;;;;26.87;77.56;102273.66;5221603;28;20032;-71
2022/06/17 08:00:01;;;;;;;4.90;2.03;;;;;;;27.28;78.25;102267.13;5221931;28;20025;-71
2022/06/17 08:02:31;;;;;;;8.98;2.40;;;;;;;27.85;73.19;102262.50;5221566;28;20036;-71
2022/06/17 08:05:02;;;;;;;5.75;2.30;;;;;;;28.35;75.16;102266.41;5221711;28;20478;-71
2022/06/17 08:07:33;;;;;;;5.63;2.63;;;;;;;28.25;72.73;102263.44;5220633;28;20028;-71
2022/06/17 08:10:04;;;;;;;7.68;2.10;;;;;;;27.93;72.66;102260.44;5221481;28;20435;-71
2022/06/17 08:12:35;;;;;;;6.78;2.20;;;;;;;27.98;71.18;102258.59;5221526;28;20516;-71
2022/06/17 08:15:06;;;;;;;3.97;2.50;;;;;;;27.97;73.02;102251.41;5221349;28;20024;-71
2022/06/17 08:17:37;;;;;;;5.30;2.13;;;;;;;28.58;70.04;102257.13;5207923;28;20025;-71
2022/06/17 08:20:29;;;;;;;5.68;2.40;;;;;;;28.44;70.35;102266.84;5209035;28;20060;-71
2022/06/17 08:22:59;;;;;;;9.75;2.20;;;;;;;28.88;71.35;102282.41;5221172;28;20029;-71
2022/06/17 08:25:32;;;;;;;8.95;2.33;;;;;;;28.74;66.56;102285.78;5209493;28;20026;-71
2022/06/17 08:28:06;;;;;;;5.25;1.90;;;;;;;28.99;66.19;102277.91;5220679;28;20079;-71
2022/06/17 08:30:43;;;;;;;5.80;2.17;;;;;;;29.02;64.74;102282.94;5220974;28;20033;-71
2022/06/17 08:33:15;;;;;;;5.53;2.08;;;;;;;29.25;65.66;102283.75;5209752;28;20500;-71
2022/06/17 08:35:48;;;;;;;5.15;2.28;;;;;;;29.51;67.61;102279.38;5208098;28;20060;-71
2022/06/17 08:38:24;;;;;;;5.70;2.10;;;;;;;29.70;63.45;102277.13;5221729;28;20021;-71
2022/06/17 08:40:55;;;;;;;6.38;2.30;;;;;;;29.50;59.13;102277.72;5221297;28;20055;-71
2022/06/17 08:43:45;;;;;;;7.07;2.05;;;;;;;29.29;62.07;102276.63;5221060;28;20459;-71
2022/06/17 08:46:36;;;;;;;7.03;2.35;;;;;;;29.83;62.57;102277.56;5210465;28;20025;-71
2022/06/17 08:49:16;;;;;;;6.65;2.13;;;;;;;29.73;61.64;102282.16;5222447;28;20040;-71
2022/06/17 08:52:23;;;;;;;3.78;1.92;;;;;;;30.40;61.04;102276.16;5222733;28;20036;-71
2022/06/17 08:55:02;;;;;;;4.13;2.03;;;;;;;29.81;57.99;102271.44;5219196;28;20033;-72
2022/06/17 08:57:43;;;;;;;6.10;2.17;;;;;;;29.33;59.06;102256.50;5225589;28;20075;-71
2022/06/17 09:00:18;;;;;;;6.60;2.80;;;;;;;28.92;61.28;102263.41;5211337;28;20025;-71
2022/06/17 09:03:11;;;;;;;3.17;1.80;;;;;;;29.45;60.38;102259.13;5225129;28;20119;-71
2022/06/17 09:05:41;;;;;;;4.32;2.13;;;;;;;29.53;59.35;102258.69;5214081;28;20040;-71
2022/06/17 09:08:31;;;;;;;4.78;2.25;;;;;;;29.35;60.15;102261.78;5211299;28;20041;-71
2022/06/17 09:11:10;;;;;;;2.58;1.90;;;;;;;29.18;59.14;102259.09;5224906;28;20421;-71
2022/06/17 09:14:14;;;;;;;4.70;2.15;;;;;;;28.87;57.63;102272.47;5216775;28;20025;-71
2022/06/17 09:16:52;;;;;;;6.05;2.10;;;;;;;28.78;57.40;102278.69;5217827;28;20032;-71
2022/06/17 09:19:43;;;;;;;4.88;1.83;;;;;;;28.94;57.62;102274.22;5219452;28;20060;-71
2022/06/17 09:22:20;;;;;;;5.88;2.00;;;;;;;28.93;57.56;102270.59;5224709;28;20359;-71
2022/06/17 09:24:52;;;;;;;4.70;2.17;;;;;;;29.13;61.85;102262.63;5211569;28;20021;-71
2022/06/17 09:27:28;;;;;;;7.05;2.20;;;;;;;28.77;58.29;102266.81;5224481;28;20096;-71
2022/06/17 09:30:20;;;;;;;2.65;1.90;;;;;;;28.93;58.64;102256.81;5224932;28;20130;-72
2022/06/17 09:33:13;;;;;;;5.22;2.25;;;;;;;28.59;58.33;102267.91;5224358;28;20025;-71
2022/06/17 09:35:52;;;;;;;8.57;2.30;;;;;;;28.68;60.74;102262.78;5224263;28;20048;-71
2022/06/17 09:38:30;;;;;;;6.07;1.80;;;;;;;29.36;58.14;102246.84;5224576;28;20036;-71
2022/06/17 09:41:07;;;;;;;5.15;2.30;;;;;;;28.90;60.40;102237.97;5223127;28;20021;-71
2022/06/17 09:43:59;;;;;;;5.75;1.95;;;;;;;28.86;55.59;102243.16;5223805;28;20033;-71
2022/06/17 09:46:51;;;;;;;3.95;1.60;;;;;;;29.25;57.27;102256.97;5223281;28;20028;-71
2022/06/17 09:49:29;;;;;;;6.65;2.08;;;;;;;29.55;55.41;102245.44;5211522;28;20017;-71
2022/06/17 09:52:23;;;;;;;4.68;1.80;;;;;;;29.85;51.94;102249.63;5223054;28;20024;-71
2022/06/17 09:55:01;;;;;;;4.35;2.00;;;;;;;30.28;53.96;102251.44;5222398;28;20023;-71
2022/06/17 09:57:40;;;;;;;4.30;1.95;;;;;;;30.58;54.96;102239.75;5223638;28;20020;-71
2022/06/17 10:00:17;;;;;;;5.82;2.00;;;;;;;30.53;55.84;102239.69;5219549;28;20055;-71
2022/06/17 10:03:06;;;;;;;5.95;1.90;;;;;;;30.47;56.45;102246.28;5214515;28;20036;-71
2022/06/17 10:05:59;;;;;;;2.55;1.88;;;;;;;30.15;54.74;102247.16;5223679;28;20040;-71
2022/06/17 10:09:00;;;;;;;3.90;1.67;;;;;;;30.11;48.75;102245.97;5222217;28;20045;-71
2022/06/17 10:11:44;;;;;;;3.45;1.98;;;;;;;29.59;48.02;102254.91;5219411;28;20083;-71
2022/06/17 10:14:20;;;;;;;3.17;1.60;;;;;;;29.55;49.16;102248.22;5215371;28;20031;-70
2022/06/17 10:20:23;;;;;;;3.53;1.80;;;;;;;29.49;48.97;102257.53;5202941;28;20651;-71
2022/06/17 10:23:20;;;;;;;2.67;1.70;;;;;;;29.67;50.02;102250.81;5219033;28;20029;-71
2022/06/17 10:26:03;;;;;;;5.80;2.05;;;;;;;29.84;49.78;102250.72;5222951;28;20554;-71
2022/06/17 10:28:43;;;;;;;5.70;1.95;;;;;;;29.57;51.19;102239.66;5223142;28;20025;-71
2022/06/17 10:31:34;;;;;;;4.70;1.80;;;;;;;29.47;53.01;102232.09;5217228;28;20029;-71
2022/06/17 10:34:12;;;;;;;3.97;1.90;;;;;;;29.27;51.41;102234.59;5217960;28;20078;-71
2022/06/17 10:36:43;;;;;;;2.60;1.70;;;;;;;29.53;54.99;102231.03;5224250;28;20025;-71
2022/06/17 10:39:17;;;;;;;5.57;2.10;;;;;;;29.80;53.22;102219.97;5209147;28;20382;-71
2022/06/17 10:41:48;;;;;;;9.10;2.03;;;;;;;30.12;52.81;102230.22;5203823;28;20079;-71
2022/06/17 10:44:23;;;;;;;3.08;1.98;;;;;;;30.30;51.31;102227.06;5222523;28;20075;-71
2022/06/17 10:46:59;;;;;;;3.95;2.20;;;;;;;30.33;52.42;102226.56;5224087;28;20059;-71
2022/06/17 10:49:36;;;;;;;6.10;2.05;;;;;;;30.53;49.04;102220.31;5224151;28;20406;-71
2022/06/17 10:52:18;;;;;;;2.90;1.83;;;;;;;30.11;50.26;102215.53;5223616;28;20033;-72
2022/06/17 10:54:51;;;;;;;5.55;1.70;;;;;;;30.00;51.03;102212.97;5223250;28;20100;-71
2022/06/17 10:58:01;;;;;;;3.80;2.08;;;;;;;29.87;52.97;102208.69;5223729;28;20310;-71
2022/06/17 11:00:34;;;;;;;5.93;2.40;;;;;;;29.61;50.67;102214.00;5210589;28;20588;-71
2022/06/17 11:03:22;;;;;;;6.88;2.10;;;;;;;29.72;52.17;102203.03;5223381;28;20112;-71
2022/06/17 11:06:08;;;;;;;5.13;2.22;;;;;;;29.89;53.36;102201.00;5213126;28;20100;-71
2022/06/17 11:08:59;;;;;;;8.98;2.17;;;;;;;29.97;51.70;102203.25;5222598;28;20060;-71
2022/06/17 11:14:30;;;;;;;9.45;2.03;;;;;;;29.70;50.18;102186.69;5222875;28;20373;-71
2022/06/17 11:17:09;;;;;;;6.28;1.85;;;;;;;29.53;52.99;102194.25;5214540;28;20021;-71
2022/06/17 11:19:41;;;;;;;6.60;2.05;;;;;;;29.73;53.66;102193.66;5206196;28;20032;-71
2022/06/17 11:22:32;;;;;;;6.85;2.40;;;;;;;30.04;51.54;102194.75;5223456;28;20506;-71
2022/06/17 11:25:35;;;;;;;4.68;2.47;;;;;;;30.44;55.28;102200.59;5222948;28;20133;-71
2022/06/17 11:28:24;;;;;;;4.53;1.80;;;;;;;30.28;51.10;102198.00;5222780;28;20037;-71
2022/06/17 11:30:58;;;;;;;10.35;2.45;;;;;;;29.92;51.00;102179.16;5221913;28;20037;-72
2022/06/17 11:33:33;;;;;;;3.72;2.05;;;;;;;30.18;54.12;102180.22;5223096;28;20108;-71
2022/06/17 11:36:06;;;;;;;7.88;2.28;;;;;;;30.23;51.37;102179.44;5222559;28;20396;-71
2022/06/17 11:38:37;;;;;;;4.47;2.00;;;;;;;30.51;53.53;102174.59;5222630;28;20281;-72
2022/06/17 11:41:08;;;;;;;7.07;2.33;;;;;;;30.38;50.28;102153.78;5211751;28;20208;-71
2022/06/17 11:43:42;;;;;;;4.40;2.30;;;;;;;30.31;52.97;102169.78;5208283;28;20223;-71
2022/06/17 11:46:33;;;;;;;4.47;2.10;;;;;;;30.13;50.76;102171.88;5211829;28;20051;-71
2022/06/17 11:49:20;;;;;;;7.05;2.03;;;;;;;29.73;50.12;102166.00;5208997;28;20371;-71
2022/06/17 11:52:00;;;;;;;5.53;2.17;;;;;;;29.97;51.34;102163.69;5222635;28;20036;-71
2022/06/17 11:54:34;;;;;;;8.00;1.90;;;;;;;30.14;51.00;102165.25;5222523;28;20108;-71
2022/06/17 11:57:24;;;;;;;5.70;2.05;;;;;;;29.92;51.93;102164.47;5222689;28;20264;-71
2022/06/17 11:59:58;;;;;;;7.43;1.90;;;;;;;30.33;53.80;102170.38;5222969;28;20391;-71
2022/06/17 12:02:29;;;;;;;9.15;2.67;;;;;;;30.09;50.84;102161.59;5222557;28;20478;-71
2022/06/17 12:05:22;;;;;;;4.45;1.90;;;;;;;29.88;52.86;102158.66;5222288;28;20064;-71
2022/06/17 12:08:10;;;;;;;7.80;2.33;;;;;;;29.93;52.50;102157.88;5209263;28;20156;-71
2022/06/17 12:11:12;;;;;;;4.18;1.70;;;;;;;30.08;52.82;102159.91;5222621;28;20055;-71